sensor_id;sensor_type;location;lat;lon;timestamp;P1;durP1;ratioP1;P2;durP2;ratioP2
5871;SDS011;2962;51.312;7.378;2023-07-16T00:01:39;1.57;;;1.47;;
5871;SDS011;2962;51.312;7.378;2023-07-16T00:04:04;3.47;;;1.57;;
5871;SDS011;2962;51.312;7.378;2023-07-16T00:06:30;1.50;;;1.40;;
5871;SDS011;2962;51.312;7.378;2023-07-16T00:08:55;4.80;;;1.50;;
5871;SDS011;2962;51.312;7.378;2023-07-16T00:11:20;1.70;;;1.43;;
5871;SDS011;2962;51.312;7.378;2023-07-16T00:13:45;2.23;;;1.40;;
5871;SDS011;2962;51.312;7.378;2023-07-16T00:16:13;2.20;;;1.80;;
5871;SDS011;2962;51.312;7.378;2023-07-16T00:18:41;1.53;;;1.50;;
5871;SDS011;2962;51.312;7.378;2023-07-16T00:21:07;3.03;;;1.80;;
5871;SDS011;2962;51.312;7.378;2023-07-16T00:23:32;2.20;;;1.33;;
5871;SDS011;2962;51.312;7.378;2023-07-16T00:25:58;1.70;;;1.43;;
5871;SDS011;2962;51.312;7.378;2023-07-16T00:28:23;1.30;;;1.30;;
5871;SDS011;2962;51.312;7.378;2023-07-16T00:30:48;1.47;;;1.37;;
5871;SDS011;2962;51.312;7.378;2023-07-16T00:33:14;1.57;;;1.30;;
5871;SDS011;2962;51.312;7.378;2023-07-16T00:35:39;2.27;;;2.17;;
5871;SDS011;2962;51.312;7.378;2023-07-16T00:38:12;3.23;;;1.20;;
5871;SDS011;2962;51.312;7.378;2023-07-16T00:40:37;2.20;;;2.10;;
5871;SDS011;2962;51.312;7.378;2023-07-16T00:43:02;1.40;;;1.40;;
5871;SDS011;2962;51.312;7.378;2023-07-16T00:45:27;3.80;;;2.00;;
5871;SDS011;2962;51.312;7.378;2023-07-16T00:47:53;2.23;;;2.03;;
5871;SDS011;2962;51.312;7.378;2023-07-16T00:50:18;2.67;;;1.50;;
5871;SDS011;2962;51.312;7.378;2023-07-16T00:52:44;1.57;;;1.50;;
5871;SDS011;2962;51.312;7.378;2023-07-16T00:55:10;1.50;;;1.50;;
5871;SDS011;2962;51.312;7.378;2023-07-16T00:57:35;4.20;;;1.47;;
5871;SDS011;2962;51.312;7.378;2023-07-16T01:00:00;2.00;;;1.77;;
5871;SDS011;2962;51.312;7.378;2023-07-16T01:02:26;1.37;;;1.30;;
5871;SDS011;2962;51.312;7.378;2023-07-16T01:04:51;1.80;;;1.73;;
5871;SDS011;2962;51.312;7.378;2023-07-16T01:07:17;3.57;;;1.80;;
5871;SDS011;2962;51.312;7.378;2023-07-16T01:09:43;2.10;;;1.80;;
5871;SDS011;2962;51.312;7.378;2023-07-16T01:12:10;2.63;;;1.90;;
5871;SDS011;2962;51.312;7.378;2023-07-16T01:14:37;1.30;;;1.30;;
5871;SDS011;2962;51.312;7.378;2023-07-16T01:17:04;2.63;;;1.30;;
5871;SDS011;2962;51.312;7.378;2023-07-16T01:19:31;4.83;;;1.70;;
5871;SDS011;2962;51.312;7.378;2023-07-16T01:30:06;3.67;;;2.00;;
5871;SDS011;2962;51.312;7.378;2023-07-16T01:32:36;3.50;;;1.60;;
5871;SDS011;2962;51.312;7.378;2023-07-16T01:35:02;1.90;;;1.80;;
5871;SDS011;2962;51.312;7.378;2023-07-16T01:37:29;4.33;;;1.73;;
5871;SDS011;2962;51.312;7.378;2023-07-16T01:39:54;2.00;;;1.70;;
5871;SDS011;2962;51.312;7.378;2023-07-16T01:42:20;1.70;;;1.50;;
5871;SDS011;2962;51.312;7.378;2023-07-16T01:44:45;4.00;;;2.07;;
5871;SDS011;2962;51.312;7.378;2023-07-16T01:47:11;2.00;;;2.00;;
5871;SDS011;2962;51.312;7.378;2023-07-16T01:49:40;1.77;;;1.63;;
5871;SDS011;2962;51.312;7.378;2023-07-16T01:52:07;2.23;;;2.07;;
5871;SDS011;2962;51.312;7.378;2023-07-16T01:54:34;1.80;;;1.70;;
5871;SDS011;2962;51.312;7.378;2023-07-16T01:57:00;6.30;;;2.33;;
5871;SDS011;2962;51.312;7.378;2023-07-16T01:59:25;1.70;;;1.70;;
5871;SDS011;2962;51.312;7.378;2023-07-16T02:01:50;4.07;;;2.00;;
5871;SDS011;2962;51.312;7.378;2023-07-16T02:04:16;4.30;;;1.80;;
5871;SDS011;2962;51.312;7.378;2023-07-16T02:06:41;3.03;;;1.83;;
5871;SDS011;2962;51.312;7.378;2023-07-16T02:09:06;2.53;;;1.53;;
5871;SDS011;2962;51.312;7.378;2023-07-16T02:11:32;3.10;;;1.80;;
5871;SDS011;2962;51.312;7.378;2023-07-16T02:13:57;3.23;;;1.80;;
5871;SDS011;2962;51.312;7.378;2023-07-16T02:16:22;6.13;;;2.30;;
5871;SDS011;2962;51.312;7.378;2023-07-16T02:18:48;2.97;;;1.30;;
5871;SDS011;2962;51.312;7.378;2023-07-16T02:21:13;1.33;;;1.33;;
5871;SDS011;2962;51.312;7.378;2023-07-16T02:23:38;3.23;;;1.30;;
5871;SDS011;2962;51.312;7.378;2023-07-16T02:26:04;1.73;;;1.63;;
5871;SDS011;2962;51.312;7.378;2023-07-16T02:28:29;4.93;;;1.53;;
5871;SDS011;2962;51.312;7.378;2023-07-16T02:30:54;4.53;;;1.40;;
5871;SDS011;2962;51.312;7.378;2023-07-16T02:33:19;4.20;;;1.20;;
5871;SDS011;2962;51.312;7.378;2023-07-16T02:35:48;1.90;;;1.70;;
5871;SDS011;2962;51.312;7.378;2023-07-16T02:38:14;2.10;;;1.80;;
5871;SDS011;2962;51.312;7.378;2023-07-16T02:40:48;2.60;;;1.43;;
5871;SDS011;2962;51.312;7.378;2023-07-16T02:43:14;6.33;;;1.50;;
5871;SDS011;2962;51.312;7.378;2023-07-16T02:45:40;5.77;;;1.63;;
5871;SDS011;2962;51.312;7.378;2023-07-16T02:48:05;2.77;;;1.40;;
5871;SDS011;2962;51.312;7.378;2023-07-16T02:50:38;5.10;;;1.43;;
5871;SDS011;2962;51.312;7.378;2023-07-16T02:53:04;2.00;;;1.90;;
5871;SDS011;2962;51.312;7.378;2023-07-16T02:55:30;4.23;;;1.17;;
5871;SDS011;2962;51.312;7.378;2023-07-16T02:57:55;2.40;;;1.30;;
5871;SDS011;2962;51.312;7.378;2023-07-16T03:00:21;5.63;;;1.60;;
5871;SDS011;2962;51.312;7.378;2023-07-16T03:02:46;1.43;;;1.40;;
5871;SDS011;2962;51.312;7.378;2023-07-16T03:05:11;1.40;;;1.17;;
5871;SDS011;2962;51.312;7.378;2023-07-16T03:07:37;3.17;;;1.53;;
5871;SDS011;2962;51.312;7.378;2023-07-16T03:10:02;1.90;;;1.20;;
5871;SDS011;2962;51.312;7.378;2023-07-16T03:12:28;9.37;;;1.60;;
5871;SDS011;2962;51.312;7.378;2023-07-16T03:14:53;5.67;;;1.10;;
5871;SDS011;2962;51.312;7.378;2023-07-16T03:17:19;1.90;;;1.40;;
5871;SDS011;2962;51.312;7.378;2023-07-16T03:19:46;3.03;;;1.50;;
5871;SDS011;2962;51.312;7.378;2023-07-16T03:22:11;2.40;;;1.20;;
5871;SDS011;2962;51.312;7.378;2023-07-16T03:24:37;2.60;;;1.40;;
5871;SDS011;2962;51.312;7.378;2023-07-16T03:27:02;2.20;;;1.53;;
5871;SDS011;2962;51.312;7.378;2023-07-16T03:29:28;1.63;;;1.53;;
5871;SDS011;2962;51.312;7.378;2023-07-16T03:31:53;1.20;;;1.20;;
5871;SDS011;2962;51.312;7.378;2023-07-16T03:34:18;7.43;;;1.67;;
5871;SDS011;2962;51.312;7.378;2023-07-16T03:36:44;1.73;;;1.47;;
5871;SDS011;2962;51.312;7.378;2023-07-16T03:39:09;2.97;;;1.80;;
5871;SDS011;2962;51.312;7.378;2023-07-16T03:41:34;1.70;;;1.60;;
5871;SDS011;2962;51.312;7.378;2023-07-16T03:43:59;3.00;;;1.30;;
5871;SDS011;2962;51.312;7.378;2023-07-16T03:46:25;2.23;;;1.10;;
5871;SDS011;2962;51.312;7.378;2023-07-16T03:48:50;1.30;;;1.20;;
5871;SDS011;2962;51.312;7.378;2023-07-16T03:51:16;2.60;;;1.27;;
5871;SDS011;2962;51.312;7.378;2023-07-16T03:53:42;3.33;;;1.30;;
5871;SDS011;2962;51.312;7.378;2023-07-16T03:56:07;4.10;;;2.07;;
5871;SDS011;2962;51.312;7.378;2023-07-16T03:58:32;4.17;;;1.60;;
5871;SDS011;2962;51.312;7.378;2023-07-16T04:00:58;1.77;;;1.57;;
5871;SDS011;2962;51.312;7.378;2023-07-16T04:03:23;2.67;;;1.80;;
5871;SDS011;2962;51.312;7.378;2023-07-16T04:05:49;5.40;;;2.30;;
5871;SDS011;2962;51.312;7.378;2023-07-16T04:08:14;2.00;;;1.50;;
5871;SDS011;2962;51.312;7.378;2023-07-16T04:10:39;1.43;;;1.30;;
5871;SDS011;2962;51.312;7.378;2023-07-16T04:13:05;4.30;;;2.20;;
5871;SDS011;2962;51.312;7.378;2023-07-16T04:15:30;2.17;;;1.17;;
5871;SDS011;2962;51.312;7.378;2023-07-16T04:17:55;5.40;;;1.77;;
5871;SDS011;2962;51.312;7.378;2023-07-16T04:20:21;3.67;;;1.60;;
5871;SDS011;2962;51.312;7.378;2023-07-16T04:22:46;7.00;;;1.80;;
5871;SDS011;2962;51.312;7.378;2023-07-16T04:25:11;4.67;;;1.30;;
5871;SDS011;2962;51.312;7.378;2023-07-16T04:27:37;1.57;;;1.20;;
5871;SDS011;2962;51.312;7.378;2023-07-16T04:30:02;4.03;;;2.13;;
5871;SDS011;2962;51.312;7.378;2023-07-16T04:32:28;2.40;;;2.20;;
5871;SDS011;2962;51.312;7.378;2023-07-16T04:34:53;1.90;;;1.57;;
5871;SDS011;2962;51.312;7.378;2023-07-16T04:37:19;7.20;;;1.80;;
5871;SDS011;2962;51.312;7.378;2023-07-16T04:39:44;3.07;;;1.70;;
5871;SDS011;2962;51.312;7.378;2023-07-16T04:42:09;3.50;;;1.60;;
5871;SDS011;2962;51.312;7.378;2023-07-16T04:44:35;4.83;;;2.00;;
5871;SDS011;2962;51.312;7.378;2023-07-16T04:47:00;3.13;;;1.70;;
5871;SDS011;2962;51.312;7.378;2023-07-16T04:49:25;5.00;;;2.00;;
5871;SDS011;2962;51.312;7.378;2023-07-16T04:51:51;7.03;;;2.20;;
5871;SDS011;2962;51.312;7.378;2023-07-16T04:54:16;3.97;;;2.23;;
5871;SDS011;2962;51.312;7.378;2023-07-16T04:56:41;4.20;;;1.83;;
5871;SDS011;2962;51.312;7.378;2023-07-16T04:59:06;2.03;;;1.80;;
5871;SDS011;2962;51.312;7.378;2023-07-16T05:01:32;6.17;;;2.00;;
5871;SDS011;2962;51.312;7.378;2023-07-16T05:03:57;2.40;;;1.70;;
5871;SDS011;2962;51.312;7.378;2023-07-16T05:06:22;5.00;;;1.90;;
5871;SDS011;2962;51.312;7.378;2023-07-16T05:08:48;4.00;;;2.00;;
5871;SDS011;2962;51.312;7.378;2023-07-16T05:11:13;6.47;;;2.50;;
5871;SDS011;2962;51.312;7.378;2023-07-16T05:13:38;6.33;;;2.30;;
5871;SDS011;2962;51.312;7.378;2023-07-16T05:16:04;4.23;;;2.90;;
5871;SDS011;2962;51.312;7.378;2023-07-16T05:18:29;9.40;;;2.30;;
5871;SDS011;2962;51.312;7.378;2023-07-16T05:20:54;3.63;;;1.90;;
5871;SDS011;2962;51.312;7.378;2023-07-16T05:23:20;2.60;;;2.50;;
5871;SDS011;2962;51.312;7.378;2023-07-16T05:25:48;2.40;;;2.20;;
5871;SDS011;2962;51.312;7.378;2023-07-16T05:28:15;5.10;;;2.07;;
5871;SDS011;2962;51.312;7.378;2023-07-16T05:30:41;3.10;;;2.43;;
5871;SDS011;2962;51.312;7.378;2023-07-16T05:33:07;2.60;;;2.30;;
5871;SDS011;2962;51.312;7.378;2023-07-16T05:35:32;4.23;;;2.33;;
5871;SDS011;2962;51.312;7.378;2023-07-16T05:37:57;4.80;;;2.40;;
5871;SDS011;2962;51.312;7.378;2023-07-16T05:40:22;2.10;;;2.00;;
5871;SDS011;2962;51.312;7.378;2023-07-16T05:42:48;2.30;;;2.10;;
5871;SDS011;2962;51.312;7.378;2023-07-16T05:45:13;3.07;;;2.13;;
5871;SDS011;2962;51.312;7.378;2023-07-16T05:47:38;4.47;;;2.30;;
5871;SDS011;2962;51.312;7.378;2023-07-16T05:50:04;5.70;;;2.50;;
5871;SDS011;2962;51.312;7.378;2023-07-16T05:52:29;5.37;;;2.27;;
5871;SDS011;2962;51.312;7.378;2023-07-16T05:54:55;3.73;;;2.67;;
5871;SDS011;2962;51.312;7.378;2023-07-16T05:57:20;9.33;;;2.50;;
5871;SDS011;2962;51.312;7.378;2023-07-16T05:59:46;2.47;;;2.37;;
5871;SDS011;2962;51.312;7.378;2023-07-16T06:02:11;3.90;;;2.00;;
5871;SDS011;2962;51.312;7.378;2023-07-16T06:04:36;10.33;;;3.07;;
5871;SDS011;2962;51.312;7.378;2023-07-16T06:07:02;3.70;;;3.10;;
5871;SDS011;2962;51.312;7.378;2023-07-16T06:09:28;2.87;;;2.63;;
5871;SDS011;2962;51.312;7.378;2023-07-16T06:11:53;4.00;;;2.43;;
5871;SDS011;2962;51.312;7.378;2023-07-16T06:14:18;4.70;;;3.50;;
5871;SDS011;2962;51.312;7.378;2023-07-16T06:16:44;6.23;;;2.77;;
5871;SDS011;2962;51.312;7.378;2023-07-16T06:19:09;5.20;;;3.00;;
5871;SDS011;2962;51.312;7.378;2023-07-16T06:21:34;3.40;;;2.50;;
5871;SDS011;2962;51.312;7.378;2023-07-16T06:24:00;3.83;;;2.63;;
5871;SDS011;2962;51.312;7.378;2023-07-16T06:26:25;4.20;;;3.40;;
5871;SDS011;2962;51.312;7.378;2023-07-16T06:28:51;5.13;;;3.20;;
5871;SDS011;2962;51.312;7.378;2023-07-16T06:31:16;7.60;;;4.50;;
5871;SDS011;2962;51.312;7.378;2023-07-16T06:33:42;6.10;;;3.90;;
5871;SDS011;2962;51.312;7.378;2023-07-16T06:36:07;5.37;;;2.90;;
5871;SDS011;2962;51.312;7.378;2023-07-16T06:38:33;15.70;;;3.53;;
5871;SDS011;2962;51.312;7.378;2023-07-16T06:40:58;5.30;;;3.93;;
5871;SDS011;2962;51.312;7.378;2023-07-16T06:43:23;5.27;;;4.07;;
5871;SDS011;2962;51.312;7.378;2023-07-16T06:45:49;3.23;;;3.07;;
5871;SDS011;2962;51.312;7.378;2023-07-16T06:48:18;6.10;;;3.77;;
5871;SDS011;2962;51.312;7.378;2023-07-16T06:50:43;7.00;;;3.20;;
5871;SDS011;2962;51.312;7.378;2023-07-16T06:53:08;5.67;;;3.70;;
5871;SDS011;2962;51.312;7.378;2023-07-16T06:55:34;7.27;;;3.70;;
5871;SDS011;2962;51.312;7.378;2023-07-16T06:58:00;4.07;;;3.60;;
5871;SDS011;2962;51.312;7.378;2023-07-16T07:00:25;6.00;;;3.40;;
5871;SDS011;2962;51.312;7.378;2023-07-16T07:02:51;7.87;;;4.40;;
5871;SDS011;2962;51.312;7.378;2023-07-16T07:05:16;4.30;;;3.63;;
5871;SDS011;2962;51.312;7.378;2023-07-16T07:07:41;4.90;;;3.80;;
5871;SDS011;2962;51.312;7.378;2023-07-16T07:10:08;8.70;;;4.23;;
5871;SDS011;2962;51.312;7.378;2023-07-16T07:12:33;5.37;;;3.23;;
5871;SDS011;2962;51.312;7.378;2023-07-16T07:15:02;11.70;;;4.20;;
5871;SDS011;2962;51.312;7.378;2023-07-16T07:17:29;8.63;;;4.20;;
5871;SDS011;2962;51.312;7.378;2023-07-16T07:19:54;7.00;;;3.53;;
5871;SDS011;2962;51.312;7.378;2023-07-16T07:22:19;4.37;;;3.93;;
5871;SDS011;2962;51.312;7.378;2023-07-16T07:24:45;4.47;;;4.10;;
5871;SDS011;2962;51.312;7.378;2023-07-16T07:27:10;9.73;;;3.90;;
5871;SDS011;2962;51.312;7.378;2023-07-16T07:29:38;3.87;;;3.57;;
5871;SDS011;2962;51.312;7.378;2023-07-16T07:32:03;4.53;;;4.23;;
5871;SDS011;2962;51.312;7.378;2023-07-16T07:34:29;4.50;;;3.97;;
5871;SDS011;2962;51.312;7.378;2023-07-16T07:36:54;4.67;;;3.27;;
5871;SDS011;2962;51.312;7.378;2023-07-16T07:39:20;4.20;;;3.60;;
5871;SDS011;2962;51.312;7.378;2023-07-16T07:41:45;5.00;;;4.60;;
5871;SDS011;2962;51.312;7.378;2023-07-16T07:44:10;7.03;;;4.37;;
5871;SDS011;2962;51.312;7.378;2023-07-16T07:46:35;3.90;;;3.50;;
5871;SDS011;2962;51.312;7.378;2023-07-16T07:49:01;4.63;;;4.33;;
5871;SDS011;2962;51.312;7.378;2023-07-16T07:51:26;6.67;;;3.87;;
5871;SDS011;2962;51.312;7.378;2023-07-16T07:53:51;6.47;;;3.73;;
5871;SDS011;2962;51.312;7.378;2023-07-16T07:56:17;6.73;;;3.20;;
5871;SDS011;2962;51.312;7.378;2023-07-16T07:58:42;4.30;;;4.10;;
5871;SDS011;2962;51.312;7.378;2023-07-16T08:01:08;3.60;;;3.30;;
5871;SDS011;2962;51.312;7.378;2023-07-16T08:03:34;5.23;;;3.57;;
5871;SDS011;2962;51.312;7.378;2023-07-16T08:06:00;6.93;;;3.60;;
5871;SDS011;2962;51.312;7.378;2023-07-16T08:08:25;5.67;;;3.70;;
5871;SDS011;2962;51.312;7.378;2023-07-16T08:10:51;4.40;;;4.00;;
5871;SDS011;2962;51.312;7.378;2023-07-16T08:13:16;4.63;;;4.27;;
5871;SDS011;2962;51.312;7.378;2023-07-16T08:15:41;5.97;;;3.40;;
5871;SDS011;2962;51.312;7.378;2023-07-16T08:18:07;4.80;;;4.30;;
5871;SDS011;2962;51.312;7.378;2023-07-16T08:20:32;3.77;;;3.50;;
5871;SDS011;2962;51.312;7.378;2023-07-16T08:22:57;7.53;;;3.70;;
5871;SDS011;2962;51.312;7.378;2023-07-16T08:25:23;3.93;;;3.60;;
5871;SDS011;2962;51.312;7.378;2023-07-16T08:27:48;8.13;;;3.73;;
5871;SDS011;2962;51.312;7.378;2023-07-16T08:30:14;3.40;;;3.30;;
5871;SDS011;2962;51.312;7.378;2023-07-16T08:32:39;3.80;;;3.40;;
5871;SDS011;2962;51.312;7.378;2023-07-16T08:35:05;7.10;;;3.60;;
5871;SDS011;2962;51.312;7.378;2023-07-16T08:37:30;6.67;;;3.87;;
5871;SDS011;2962;51.312;7.378;2023-07-16T08:39:55;4.00;;;3.60;;
5871;SDS011;2962;51.312;7.378;2023-07-16T08:42:21;5.93;;;3.70;;
5871;SDS011;2962;51.312;7.378;2023-07-16T08:44:48;8.87;;;4.27;;
5871;SDS011;2962;51.312;7.378;2023-07-16T08:47:15;7.53;;;3.57;;
5871;SDS011;2962;51.312;7.378;2023-07-16T08:49:41;4.60;;;3.50;;
5871;SDS011;2962;51.312;7.378;2023-07-16T08:52:12;3.73;;;3.53;;
5871;SDS011;2962;51.312;7.378;2023-07-16T08:54:38;6.93;;;3.53;;
5871;SDS011;2962;51.312;7.378;2023-07-16T08:57:04;5.00;;;3.70;;
5871;SDS011;2962;51.312;7.378;2023-07-16T08:59:30;3.90;;;3.23;;
5871;SDS011;2962;51.312;7.378;2023-07-16T09:01:55;4.07;;;3.53;;
5871;SDS011;2962;51.312;7.378;2023-07-16T09:04:20;7.97;;;3.37;;
5871;SDS011;2962;51.312;7.378;2023-07-16T09:06:46;5.10;;;3.80;;
5871;SDS011;2962;51.312;7.378;2023-07-16T09:09:19;4.23;;;3.20;;
5871;SDS011;2962;51.312;7.378;2023-07-16T09:11:46;4.17;;;3.80;;
5871;SDS011;2962;51.312;7.378;2023-07-16T09:14:14;7.03;;;4.37;;
5871;SDS011;2962;51.312;7.378;2023-07-16T09:16:41;4.60;;;3.80;;
5871;SDS011;2962;51.312;7.378;2023-07-16T09:19:09;3.17;;;3.00;;
5871;SDS011;2962;51.312;7.378;2023-07-16T09:21:36;8.33;;;3.70;;
5871;SDS011;2962;51.312;7.378;2023-07-16T09:24:05;3.47;;;3.13;;
5871;SDS011;2962;51.312;7.378;2023-07-16T09:26:32;3.30;;;3.07;;
5871;SDS011;2962;51.312;7.378;2023-07-16T09:28:57;4.00;;;3.70;;
5871;SDS011;2962;51.312;7.378;2023-07-16T09:31:22;6.53;;;3.77;;
5871;SDS011;2962;51.312;7.378;2023-07-16T09:33:48;3.97;;;3.63;;
5871;SDS011;2962;51.312;7.378;2023-07-16T09:36:22;5.83;;;4.10;;
5871;SDS011;2962;51.312;7.378;2023-07-16T09:38:48;3.63;;;3.20;;
5871;SDS011;2962;51.312;7.378;2023-07-16T09:41:14;3.63;;;3.33;;
5871;SDS011;2962;51.312;7.378;2023-07-16T09:43:39;3.70;;;3.50;;
5871;SDS011;2962;51.312;7.378;2023-07-16T09:46:06;3.63;;;3.20;;
5871;SDS011;2962;51.312;7.378;2023-07-16T09:48:31;3.93;;;3.73;;
5871;SDS011;2962;51.312;7.378;2023-07-16T09:50:57;5.80;;;3.63;;
5871;SDS011;2962;51.312;7.378;2023-07-16T09:53:23;5.17;;;4.20;;
5871;SDS011;2962;51.312;7.378;2023-07-16T09:55:48;4.97;;;4.57;;
5871;SDS011;2962;51.312;7.378;2023-07-16T09:58:14;3.60;;;3.30;;
5871;SDS011;2962;51.312;7.378;2023-07-16T10:00:41;3.60;;;3.30;;
5871;SDS011;2962;51.312;7.378;2023-07-16T10:03:08;4.00;;;3.70;;
5871;SDS011;2962;51.312;7.378;2023-07-16T10:05:35;3.77;;;3.57;;
5871;SDS011;2962;51.312;7.378;2023-07-16T10:08:02;3.27;;;2.97;;
5871;SDS011;2962;51.312;7.378;2023-07-16T10:10:41;6.90;;;3.50;;
5871;SDS011;2962;51.312;7.378;2023-07-16T10:13:08;4.40;;;3.60;;
5871;SDS011;2962;51.312;7.378;2023-07-16T10:15:37;3.10;;;2.90;;
5871;SDS011;2962;51.312;7.378;2023-07-16T10:18:02;6.97;;;3.30;;
5871;SDS011;2962;51.312;7.378;2023-07-16T10:20:34;3.10;;;2.90;;
5871;SDS011;2962;51.312;7.378;2023-07-16T10:23:12;4.07;;;3.70;;
5871;SDS011;2962;51.312;7.378;2023-07-16T10:25:38;6.03;;;3.00;;
5871;SDS011;2962;51.312;7.378;2023-07-16T10:28:04;2.07;;;1.97;;
5871;SDS011;2962;51.312;7.378;2023-07-16T10:30:30;3.07;;;2.93;;
5871;SDS011;2962;51.312;7.378;2023-07-16T10:32:57;8.17;;;3.53;;
5871;SDS011;2962;51.312;7.378;2023-07-16T10:35:22;3.60;;;3.30;;
5871;SDS011;2962;51.312;7.378;2023-07-16T10:37:48;4.83;;;3.23;;
5871;SDS011;2962;51.312;7.378;2023-07-16T10:40:13;3.20;;;2.90;;
5871;SDS011;2962;51.312;7.378;2023-07-16T10:42:43;4.53;;;3.40;;
5871;SDS011;2962;51.312;7.378;2023-07-16T10:45:09;6.77;;;3.43;;
5871;SDS011;2962;51.312;7.378;2023-07-16T10:47:36;3.13;;;2.63;;
5871;SDS011;2962;51.312;7.378;2023-07-16T10:50:03;3.20;;;3.10;;
5871;SDS011;2962;51.312;7.378;2023-07-16T10:52:30;3.20;;;2.93;;
5871;SDS011;2962;51.312;7.378;2023-07-16T10:54:55;3.20;;;2.87;;
5871;SDS011;2962;51.312;7.378;2023-07-16T10:57:22;2.80;;;2.70;;
5871;SDS011;2962;51.312;7.378;2023-07-16T10:59:50;4.33;;;2.37;;
5871;SDS011;2962;51.312;7.378;2023-07-16T11:02:16;2.80;;;2.60;;
5871;SDS011;2962;51.312;7.378;2023-07-16T11:04:43;4.30;;;2.87;;
5871;SDS011;2962;51.312;7.378;2023-07-16T11:07:09;2.70;;;2.50;;
5871;SDS011;2962;51.312;7.378;2023-07-16T11:09:43;3.20;;;2.50;;
5871;SDS011;2962;51.312;7.378;2023-07-16T11:12:14;2.33;;;2.23;;
5871;SDS011;2962;51.312;7.378;2023-07-16T11:14:49;2.80;;;2.60;;
5871;SDS011;2962;51.312;7.378;2023-07-16T11:17:17;2.60;;;2.30;;
5871;SDS011;2962;51.312;7.378;2023-07-16T11:19:46;6.83;;;2.33;;
5871;SDS011;2962;51.312;7.378;2023-07-16T11:22:13;3.10;;;2.93;;
5871;SDS011;2962;51.312;7.378;2023-07-16T11:24:41;3.57;;;3.20;;
5871;SDS011;2962;51.312;7.378;2023-07-16T11:27:15;7.00;;;2.60;;
5871;SDS011;2962;51.312;7.378;2023-07-16T11:29:45;7.70;;;2.80;;
5871;SDS011;2962;51.312;7.378;2023-07-16T11:32:12;2.70;;;2.50;;
5871;SDS011;2962;51.312;7.378;2023-07-16T11:34:51;3.10;;;2.43;;
5871;SDS011;2962;51.312;7.378;2023-07-16T11:37:16;2.47;;;2.27;;
5871;SDS011;2962;51.312;7.378;2023-07-16T11:39:42;2.57;;;2.30;;
5871;SDS011;2962;51.312;7.378;2023-07-16T11:42:07;2.40;;;2.27;;
5871;SDS011;2962;51.312;7.378;2023-07-16T11:44:33;6.60;;;3.07;;
5871;SDS011;2962;51.312;7.378;2023-07-16T11:46:59;2.97;;;2.77;;
5871;SDS011;2962;51.312;7.378;2023-07-16T11:49:25;3.00;;;2.83;;
5871;SDS011;2962;51.312;7.378;2023-07-16T11:51:50;4.13;;;2.70;;
5871;SDS011;2962;51.312;7.378;2023-07-16T11:54:15;3.27;;;3.07;;
5871;SDS011;2962;51.312;7.378;2023-07-16T11:56:41;2.40;;;2.30;;
5871;SDS011;2962;51.312;7.378;2023-07-16T11:59:06;3.20;;;2.90;;
5871;SDS011;2962;51.312;7.378;2023-07-16T12:01:31;5.40;;;2.07;;
5871;SDS011;2962;51.312;7.378;2023-07-16T12:03:57;2.70;;;2.50;;
5871;SDS011;2962;51.312;7.378;2023-07-16T12:06:22;3.27;;;3.00;;
5871;SDS011;2962;51.312;7.378;2023-07-16T12:08:47;2.70;;;2.53;;
5871;SDS011;2962;51.312;7.378;2023-07-16T12:11:12;2.57;;;2.47;;
5871;SDS011;2962;51.312;7.378;2023-07-16T12:13:38;3.23;;;2.60;;
5871;SDS011;2962;51.312;7.378;2023-07-16T12:16:03;4.60;;;3.10;;
5871;SDS011;2962;51.312;7.378;2023-07-16T12:18:29;3.07;;;2.40;;
5871;SDS011;2962;51.312;7.378;2023-07-16T12:20:55;5.23;;;2.10;;
5871;SDS011;2962;51.312;7.378;2023-07-16T12:23:21;2.83;;;2.73;;
5871;SDS011;2962;51.312;7.378;2023-07-16T12:25:46;3.20;;;2.67;;
5871;SDS011;2962;51.312;7.378;2023-07-16T12:28:13;3.33;;;3.03;;
5871;SDS011;2962;51.312;7.378;2023-07-16T12:30:38;3.23;;;2.93;;
5871;SDS011;2962;51.312;7.378;2023-07-16T12:33:03;3.73;;;3.07;;
5871;SDS011;2962;51.312;7.378;2023-07-16T12:35:29;2.97;;;2.77;;
5871;SDS011;2962;51.312;7.378;2023-07-16T12:37:54;2.77;;;2.67;;
5871;SDS011;2962;51.312;7.378;2023-07-16T12:40:19;3.30;;;2.80;;
5871;SDS011;2962;51.312;7.378;2023-07-16T12:42:45;3.90;;;2.87;;
5871;SDS011;2962;51.312;7.378;2023-07-16T12:45:10;3.33;;;2.60;;
5871;SDS011;2962;51.312;7.378;2023-07-16T12:47:35;2.87;;;2.67;;
5871;SDS011;2962;51.312;7.378;2023-07-16T12:50:03;2.80;;;2.70;;
5871;SDS011;2962;51.312;7.378;2023-07-16T12:52:29;7.03;;;2.57;;
5871;SDS011;2962;51.312;7.378;2023-07-16T12:54:54;2.90;;;2.70;;
5871;SDS011;2962;51.312;7.378;2023-07-16T12:57:19;4.87;;;2.37;;
5871;SDS011;2962;51.312;7.378;2023-07-16T12:59:45;2.63;;;2.40;;
5871;SDS011;2962;51.312;7.378;2023-07-16T13:02:10;3.90;;;3.70;;
5871;SDS011;2962;51.312;7.378;2023-07-16T13:04:35;3.37;;;3.27;;
5871;SDS011;2962;51.312;7.378;2023-07-16T13:07:00;3.63;;;2.93;;
5871;SDS011;2962;51.312;7.378;2023-07-16T13:09:26;3.27;;;2.97;;
5871;SDS011;2962;51.312;7.378;2023-07-16T13:11:51;3.40;;;3.10;;
5871;SDS011;2962;51.312;7.378;2023-07-16T13:14:17;3.33;;;3.13;;
5871;SDS011;2962;51.312;7.378;2023-07-16T13:16:42;3.10;;;2.77;;
5871;SDS011;2962;51.312;7.378;2023-07-16T13:19:07;2.90;;;2.70;;
5871;SDS011;2962;51.312;7.378;2023-07-16T13:21:33;5.70;;;3.30;;
5871;SDS011;2962;51.312;7.378;2023-07-16T13:23:58;2.60;;;2.33;;
5871;SDS011;2962;51.312;7.378;2023-07-16T13:26:23;3.53;;;3.33;;
5871;SDS011;2962;51.312;7.378;2023-07-16T13:28:49;3.43;;;3.03;;
5871;SDS011;2962;51.312;7.378;2023-07-16T13:31:15;2.93;;;2.83;;
5871;SDS011;2962;51.312;7.378;2023-07-16T13:33:40;2.90;;;2.80;;
5871;SDS011;2962;51.312;7.378;2023-07-16T13:36:05;4.70;;;4.40;;
5871;SDS011;2962;51.312;7.378;2023-07-16T13:38:31;2.90;;;2.70;;
5871;SDS011;2962;51.312;7.378;2023-07-16T13:40:56;2.90;;;2.70;;
5871;SDS011;2962;51.312;7.378;2023-07-16T13:43:22;2.77;;;2.57;;
5871;SDS011;2962;51.312;7.378;2023-07-16T13:45:47;3.33;;;3.00;;
5871;SDS011;2962;51.312;7.378;2023-07-16T13:48:12;5.27;;;3.40;;
5871;SDS011;2962;51.312;7.378;2023-07-16T13:50:38;3.73;;;3.40;;
5871;SDS011;2962;51.312;7.378;2023-07-16T13:53:03;5.00;;;3.10;;
5871;SDS011;2962;51.312;7.378;2023-07-16T13:55:28;3.70;;;2.80;;
5871;SDS011;2962;51.312;7.378;2023-07-16T13:57:54;2.67;;;2.60;;
5871;SDS011;2962;51.312;7.378;2023-07-16T14:00:20;7.83;;;3.77;;
5871;SDS011;2962;51.312;7.378;2023-07-16T14:02:46;6.00;;;3.70;;
5871;SDS011;2962;51.312;7.378;2023-07-16T14:05:11;3.67;;;3.23;;
5871;SDS011;2962;51.312;7.378;2023-07-16T14:07:36;3.60;;;3.40;;
5871;SDS011;2962;51.312;7.378;2023-07-16T14:10:02;3.00;;;2.80;;
5871;SDS011;2962;51.312;7.378;2023-07-16T14:12:27;3.27;;;3.07;;
5871;SDS011;2962;51.312;7.378;2023-07-16T14:14:53;3.67;;;3.57;;
5871;SDS011;2962;51.312;7.378;2023-07-16T14:17:19;3.20;;;2.97;;
5871;SDS011;2962;51.312;7.378;2023-07-16T14:19:45;3.73;;;2.93;;
5871;SDS011;2962;51.312;7.378;2023-07-16T14:22:10;4.20;;;3.60;;
5871;SDS011;2962;51.312;7.378;2023-07-16T14:24:37;3.80;;;3.10;;
5871;SDS011;2962;51.312;7.378;2023-07-16T14:27:04;4.77;;;4.00;;
5871;SDS011;2962;51.312;7.378;2023-07-16T14:29:31;3.70;;;3.00;;
5871;SDS011;2962;51.312;7.378;2023-07-16T14:31:56;3.67;;;3.13;;
5871;SDS011;2962;51.312;7.378;2023-07-16T14:34:22;3.40;;;3.20;;
5871;SDS011;2962;51.312;7.378;2023-07-16T14:36:48;4.23;;;3.07;;
5871;SDS011;2962;51.312;7.378;2023-07-16T14:39:13;3.40;;;3.10;;
5871;SDS011;2962;51.312;7.378;2023-07-16T14:41:38;9.00;;;2.90;;
5871;SDS011;2962;51.312;7.378;2023-07-16T14:44:04;3.13;;;2.93;;
5871;SDS011;2962;51.312;7.378;2023-07-16T14:46:30;3.03;;;2.77;;
5871;SDS011;2962;51.312;7.378;2023-07-16T14:48:55;8.27;;;3.20;;
5871;SDS011;2962;51.312;7.378;2023-07-16T14:51:23;5.60;;;2.80;;
5871;SDS011;2962;51.312;7.378;2023-07-16T14:53:48;9.63;;;2.90;;
5871;SDS011;2962;51.312;7.378;2023-07-16T14:56:14;2.90;;;2.70;;
5871;SDS011;2962;51.312;7.378;2023-07-16T14:58:39;3.30;;;3.00;;
5871;SDS011;2962;51.312;7.378;2023-07-16T15:01:04;3.27;;;3.07;;
5871;SDS011;2962;51.312;7.378;2023-07-16T15:03:33;3.00;;;2.80;;
5871;SDS011;2962;51.312;7.378;2023-07-16T15:05:59;3.17;;;2.97;;
5871;SDS011;2962;51.312;7.378;2023-07-16T15:08:25;4.47;;;2.87;;
5871;SDS011;2962;51.312;7.378;2023-07-16T15:10:54;2.70;;;2.50;;
5871;SDS011;2962;51.312;7.378;2023-07-16T15:13:21;5.17;;;3.50;;
5871;SDS011;2962;51.312;7.378;2023-07-16T15:15:50;2.97;;;2.77;;